Accueil
METAR-TAF:

METAR-TAF

Aéroports :

Marham, Angleterre

latitude: 52-39N, longitude: 000-34E, altitude: 23 m

Observation

Le bulletin a été fait il y a 1 heure et 10 minutes, à 21:50 UTC
Vent 14 kt de ouest
Température 12°C
Humidité 88%
Pression 1027 hPa
Visibilité 10 km ou plus
Nuages fragmentés à une hauteur de 1600 ft

METAR: EGYM 232150Z 28014KT 9999 BKN016 12/10 Q1027 WHT

Heure: 00:00 (23:00 UTC)

Prévision

Le bulletin a été fait il y a 9 heures et 55 minutes, à 13:05 UTC
Prévision valable du 23 à 15 UTC au 23 à 21 UTC
Vent 17 kt de ouest avec des rafales jusqu'à 27 kt
Visibilité 10 km ou plus
Quelques nuages à une hauteur de 4000 ft
Evoluant progressivement
du 23 à 16 UTC au 23 à 18 UTC
Vent 12 kt de ouest
Probabilité 30% :
Temporairement
du 23 à 18 UTC au 23 à 21 UTC
Nuages épars à une hauteur de 2000 ft

TAF: EGYM 231305Z 2315/2321 28017G27KT 9999 FEW040 BECMG 2316/2318 28012KT PROB30 TEMPO 2318/2321 SCT020

Observations et prévisions météorologiques de plus de 4000 aéroports (messages METAR et TAF).

Les stations disponibles sont représentées par des disques jaunes et rouges sur la carte.

Passer la souris dessus pour voir le nom de la station.

Cliquer dessus pour voir les observations et prévisions météorologiques.

Pour changer de carte: cliquez sur les boutons verts avec une croix noire pour zoomer, sur le bouton vert avec un tiret pour effectuer un zoom arrière, ou sur les flèches vertes pour les cartes adjacentes.


METAR-TAF: